createdAt,value
2018-02-16T00:01:02.839Z,6.53
2018-02-16T00:03:31.354Z,6.60
2018-02-16T00:05:59.865Z,6.69
2018-02-16T00:08:28.325Z,6.73
2018-02-16T00:10:56.845Z,6.72
2018-02-16T00:13:25.302Z,6.74
2018-02-16T00:15:53.773Z,6.73
2018-02-16T00:18:22.282Z,6.70
2018-02-16T00:20:50.791Z,6.75
2018-02-16T00:23:19.293Z,6.85
2018-02-16T00:25:47.758Z,6.88
2018-02-16T00:28:16.267Z,6.91
2018-02-16T00:30:44.743Z,6.95
2018-02-16T00:33:13.256Z,6.97
2018-02-16T00:35:41.757Z,6.89
2018-02-16T00:38:10.260Z,6.95
2018-02-16T00:40:38.758Z,6.98
2018-02-16T00:43:07.239Z,6.87
2018-02-16T00:45:35.722Z,6.98
2018-02-16T00:48:04.210Z,6.98
2018-02-16T00:50:32.709Z,6.91
2018-02-16T00:53:01.186Z,6.84
2018-02-16T00:55:30.321Z,6.68
2018-02-16T00:57:58.838Z,6.80
2018-02-16T01:00:27.319Z,6.86
2018-02-16T01:02:55.781Z,6.67
2018-02-16T01:05:24.290Z,6.24
2018-02-16T01:07:52.797Z,6.62
2018-02-16T01:10:21.317Z,6.64
2018-02-16T01:12:49.785Z,6.68
2018-02-16T01:15:18.270Z,6.54
2018-02-16T01:17:46.768Z,6.25
2018-02-16T01:20:15.283Z,6.44
2018-02-16T01:22:43.793Z,6.45
2018-02-16T01:25:12.314Z,6.42
2018-02-16T01:27:40.793Z,6.36
2018-02-16T01:30:09.248Z,6.40
2018-02-16T01:32:37.745Z,6.21
2018-02-16T01:35:06.213Z,6.42
2018-02-16T01:37:34.722Z,6.34
2018-02-16T01:40:03.283Z,6.42
2018-02-16T01:42:31.822Z,6.27
2018-02-16T01:45:00.339Z,6.12
2018-02-16T01:47:28.869Z,6.27
2018-02-16T01:50:06.085Z,6.16
2018-02-16T01:52:34.590Z,6.08
2018-02-16T01:55:03.063Z,6.11
2018-02-16T01:57:31.570Z,6.02
2018-02-16T02:00:00.110Z,6.16
2018-02-16T02:02:28.619Z,6.27
2018-02-16T02:04:57.119Z,6.31
2018-02-16T02:07:25.632Z,6.15
2018-02-16T02:09:54.098Z,6.21
2018-02-16T02:12:22.616Z,6.29
2018-02-16T02:14:51.122Z,6.02
2018-02-16T02:17:19.625Z,5.98
2018-02-16T02:19:48.138Z,6.19
2018-02-16T02:22:16.610Z,6.21
2018-02-16T02:24:45.106Z,6.10
2018-02-16T02:27:13.613Z,5.90
2018-02-16T02:29:42.058Z,5.90
2018-02-16T02:32:10.606Z,5.95
2018-02-16T02:34:39.088Z,5.83
2018-02-16T02:37:07.567Z,5.96
2018-02-16T02:39:36.086Z,5.96
2018-02-16T02:42:04.563Z,5.95
2018-02-16T02:44:33.101Z,5.96
2018-02-16T02:47:01.606Z,5.97
2018-02-16T02:49:30.075Z,5.90
2018-02-16T02:51:58.578Z,5.89
2018-02-16T02:54:27.041Z,6.02
2018-02-16T02:56:55.553Z,6.13
2018-02-16T02:59:24.014Z,6.14
2018-02-16T03:01:52.525Z,6.09
2018-02-16T03:04:21.034Z,6.18
2018-02-16T03:06:49.501Z,6.04
2018-02-16T03:09:18.109Z,5.91
2018-02-16T03:11:46.623Z,5.81
2018-02-16T03:14:15.094Z,5.95
2018-02-16T03:16:43.606Z,5.69
2018-02-16T03:19:12.089Z,5.74
2018-02-16T03:21:40.561Z,5.66
2018-02-16T03:24:09.069Z,5.78
2018-02-16T03:26:37.556Z,5.71
2018-02-16T03:29:06.168Z,5.66
2018-02-16T03:31:34.646Z,5.94
2018-02-16T03:34:03.117Z,5.91
2018-02-16T03:36:31.623Z,6.01
2018-02-16T03:39:00.126Z,5.94
2018-02-16T03:41:28.630Z,5.85
2018-02-16T03:43:57.104Z,5.73
2018-02-16T03:46:25.605Z,5.61
2018-02-16T03:48:54.075Z,5.66
2018-02-16T03:51:22.573Z,5.59
2018-02-16T03:53:51.069Z,5.63
2018-02-16T03:56:19.582Z,5.57
2018-02-16T03:58:48.050Z,5.71
2018-02-16T04:01:16.541Z,5.76
2018-02-16T04:03:45.129Z,5.47
2018-02-16T04:06:13.612Z,5.66
2018-02-16T04:08:42.113Z,5.80
2018-02-16T04:11:10.613Z,5.89
2018-02-16T04:13:39.073Z,5.84
2018-02-16T04:16:07.581Z,5.69
2018-02-16T04:18:36.050Z,5.84
2018-02-16T04:21:04.517Z,5.72
2018-02-16T04:23:33.054Z,5.67
2018-02-16T04:26:01.515Z,5.82
2018-02-16T04:28:30.018Z,5.75
2018-02-16T04:30:58.536Z,5.79
2018-02-16T04:33:27.011Z,5.84
2018-02-16T04:35:55.521Z,5.81
2018-02-16T04:38:23.993Z,5.73
2018-02-16T04:40:52.469Z,5.72
2018-02-16T04:43:20.973Z,5.89
2018-02-16T04:45:49.414Z,6.01
2018-02-16T04:48:17.873Z,6.05
2018-02-16T04:50:46.364Z,5.97
2018-02-16T04:53:14.849Z,5.82
2018-02-16T04:55:43.357Z,5.79
2018-02-16T04:58:11.861Z,5.96
2018-02-16T05:00:40.333Z,6.02
2018-02-16T05:03:08.800Z,5.94
2018-02-16T05:05:37.303Z,5.95
2018-02-16T05:08:05.786Z,5.96
2018-02-16T05:10:34.282Z,5.90
2018-02-16T05:13:02.789Z,5.99
2018-02-16T05:15:31.894Z,6.03
2018-02-16T05:18:00.355Z,5.96
2018-02-16T05:20:28.864Z,5.96
2018-02-16T05:22:57.360Z,6.04
2018-02-16T05:25:25.862Z,6.09
2018-02-16T05:27:54.373Z,6.10
2018-02-16T05:30:22.879Z,6.10
2018-02-16T05:32:51.356Z,6.10
2018-02-16T05:35:19.858Z,6.08
2018-02-16T05:37:48.321Z,6.03
2018-02-16T05:40:16.822Z,5.79
2018-02-16T05:42:45.290Z,5.97
2018-02-16T05:45:13.804Z,6.09
2018-02-16T05:47:42.283Z,6.22
2018-02-16T05:50:10.773Z,6.12
2018-02-16T05:52:39.252Z,6.11
2018-02-16T05:55:07.775Z,6.15
2018-02-16T05:57:36.286Z,6.08
2018-02-16T06:00:04.770Z,6.23
2018-02-16T06:02:33.279Z,6.27
2018-02-16T06:05:01.741Z,6.27
2018-02-16T06:07:30.269Z,6.21
2018-02-16T06:09:58.790Z,6.25
2018-02-16T06:12:27.297Z,6.31
2018-02-16T06:14:55.760Z,6.35
2018-02-16T06:17:24.237Z,6.45
2018-02-16T06:19:52.741Z,6.35
2018-02-16T06:22:21.222Z,6.53
2018-02-16T06:24:49.753Z,6.52
2018-02-16T06:27:18.236Z,6.55
2018-02-16T06:29:46.743Z,6.54
2018-02-16T06:32:15.218Z,6.43
2018-02-16T06:34:43.734Z,6.56
2018-02-16T06:37:12.243Z,6.41
2018-02-16T06:39:40.769Z,6.55
2018-02-16T06:42:09.278Z,6.62
2018-02-16T06:44:37.787Z,6.69
2018-02-16T06:47:06.246Z,6.85
2018-02-16T06:49:34.763Z,7.03
2018-02-16T06:52:03.290Z,7.04
2018-02-16T06:54:31.769Z,7.08
2018-02-16T06:57:00.284Z,7.05
2018-02-16T06:59:28.804Z,7.24
2018-02-16T07:01:57.310Z,7.31
2018-02-16T07:04:25.831Z,7.37
2018-02-16T07:06:54.303Z,7.35
2018-02-16T07:09:22.787Z,7.29
2018-02-16T07:11:51.281Z,7.33
2018-02-16T07:14:19.794Z,7.40
2018-02-16T07:16:48.295Z,7.35
2018-02-16T07:19:16.814Z,7.14
2018-02-16T07:21:45.287Z,7.36
2018-02-16T07:24:13.793Z,7.55
2018-02-16T07:26:42.270Z,7.60
2018-02-16T07:29:10.772Z,7.61
2018-02-16T07:31:39.278Z,7.51
2018-02-16T07:34:07.744Z,7.66
2018-02-16T07:36:36.238Z,7.73
2018-02-16T07:39:04.756Z,7.83
2018-02-16T07:41:33.315Z,7.95
2018-02-16T07:44:01.800Z,7.78
2018-02-16T07:46:30.305Z,7.94
2018-02-16T07:48:58.763Z,7.87
2018-02-16T07:51:27.266Z,7.82
2018-02-16T07:53:55.734Z,7.90
2018-02-16T07:56:24.234Z,8.14
2018-02-16T07:58:52.707Z,8.22
2018-02-16T08:01:21.217Z,8.13
2018-02-16T08:03:49.796Z,8.06
2018-02-16T08:06:18.313Z,8.32
2018-02-16T08:08:46.813Z,8.27
2018-02-16T08:11:15.317Z,8.40
2018-02-16T08:13:43.786Z,8.39
2018-02-16T08:16:12.286Z,8.56
2018-02-16T08:18:40.841Z,7.86
2018-02-16T08:21:09.314Z,8.39
2018-02-16T08:23:37.784Z,8.07
2018-02-16T08:26:06.290Z,8.43
2018-02-16T08:28:34.782Z,8.52
2018-02-16T08:31:03.271Z,8.71
2018-02-16T08:33:31.726Z,8.97
2018-02-16T08:36:00.237Z,9.24
2018-02-16T08:38:28.718Z,9.31
2018-02-16T08:40:57.197Z,9.31
2018-02-16T08:43:25.696Z,9.58
2018-02-16T08:45:54.172Z,9.53
2018-02-16T08:48:22.682Z,9.75
2018-02-16T08:50:51.157Z,9.66
2018-02-16T08:53:19.698Z,9.86
2018-02-16T08:55:48.665Z,9.42
2018-02-16T08:58:17.286Z,9.69
2018-02-16T09:00:45.780Z,9.79
2018-02-16T09:03:14.304Z,10.06
2018-02-16T09:05:42.798Z,10.04
2018-02-16T09:08:11.309Z,9.96
2018-02-16T09:10:39.781Z,10.32
2018-02-16T09:13:08.248Z,10.42
2018-02-16T09:15:36.813Z,10.65
2018-02-16T09:18:05.296Z,10.65
2018-02-16T09:20:33.814Z,10.49
2018-02-16T09:23:02.335Z,10.65
2018-02-16T09:25:30.840Z,10.51
2018-02-16T09:27:59.394Z,10.41
2018-02-16T09:30:27.873Z,10.76
2018-02-16T09:32:56.385Z,10.41
2018-02-16T09:35:24.861Z,10.76
2018-02-16T09:37:53.425Z,10.62
2018-02-16T09:40:22.541Z,10.90
2018-02-16T09:42:51.291Z,10.72
2018-02-16T09:45:19.780Z,10.60
2018-02-16T09:47:48.281Z,10.16
2018-02-16T09:50:16.829Z,10.46
2018-02-16T09:52:45.302Z,10.48
2018-02-16T09:55:13.814Z,10.74
2018-02-16T09:57:42.302Z,10.29
2018-02-16T10:00:10.769Z,10.42
2018-02-16T10:02:39.290Z,10.55
2018-02-16T10:05:07.759Z,10.49
2018-02-16T10:07:36.233Z,10.75
2018-02-16T10:10:04.746Z,10.71
2018-02-16T10:12:33.253Z,10.39
2018-02-16T10:15:01.732Z,10.36
2018-02-16T10:17:30.282Z,10.33
2018-02-16T10:19:58.759Z,10.56
2018-02-16T10:22:27.277Z,10.58
2018-02-16T10:24:55.794Z,10.83
2018-02-16T10:27:24.286Z,10.65
2018-02-16T10:29:52.820Z,10.60
2018-02-16T10:32:21.293Z,10.49
2018-02-16T10:34:49.787Z,10.71
2018-02-16T10:37:18.295Z,10.75
2018-02-16T10:39:46.784Z,10.87
2018-02-16T10:42:15.299Z,10.93
2018-02-16T10:44:43.794Z,11.01
2018-02-16T10:47:12.273Z,10.45
2018-02-16T10:49:40.810Z,10.85
2018-02-16T10:52:09.322Z,11.08
2018-02-16T10:54:37.790Z,10.79
2018-02-16T10:57:06.306Z,10.89
2018-02-16T10:59:34.801Z,11.05
2018-02-16T11:02:08.659Z,11.04
2018-02-16T11:04:42.789Z,10.82
2018-02-16T11:07:16.786Z,10.84
2018-02-16T11:09:45.274Z,10.92
2018-02-16T11:12:13.806Z,10.83
2018-02-16T11:14:42.310Z,10.81
2018-02-16T11:17:10.797Z,10.86
2018-02-16T11:19:39.306Z,10.79
2018-02-16T11:22:07.778Z,10.88
2018-02-16T11:24:36.290Z,11.15
2018-02-16T11:27:04.778Z,11.17
2018-02-16T11:29:33.306Z,11.02
2018-02-16T11:32:01.795Z,10.81
2018-02-16T11:34:30.278Z,11.20
2018-02-16T11:36:58.758Z,11.18
2018-02-16T11:39:27.285Z,11.27
2018-02-16T11:41:55.747Z,11.38
2018-02-16T11:44:24.254Z,11.45
2018-02-16T11:46:52.734Z,11.13
2018-02-16T11:49:21.253Z,11.34
2018-02-16T11:51:49.797Z,11.45
2018-02-16T11:54:18.268Z,11.36
2018-02-16T11:56:46.778Z,11.34
2018-02-16T11:59:15.361Z,11.33
2018-02-16T12:01:43.860Z,11.23
2018-02-16T12:04:12.375Z,11.21
2018-02-16T12:06:40.893Z,11.20
2018-02-16T12:09:09.367Z,11.31
2018-02-16T12:11:37.852Z,11.43
2018-02-16T12:14:06.378Z,11.38
2018-02-16T12:16:34.853Z,11.11
2018-02-16T12:19:03.343Z,11.20
2018-02-16T12:21:31.868Z,11.18
2018-02-16T12:24:00.373Z,11.27
2018-02-16T12:26:28.893Z,11.42
2018-02-16T12:28:57.361Z,11.31
2018-02-16T12:31:25.898Z,11.42
2018-02-16T12:33:54.398Z,11.54
2018-02-16T12:36:23.169Z,10.88
2018-02-16T12:38:51.678Z,11.20
2018-02-16T12:41:20.194Z,11.32
2018-02-16T12:43:48.670Z,11.55
2018-02-16T12:46:17.149Z,11.45
2018-02-16T12:48:45.675Z,11.69
2018-02-16T12:51:14.150Z,11.64
2018-02-16T12:53:42.658Z,11.73
2018-02-16T12:56:11.142Z,11.79
2018-02-16T12:58:39.649Z,11.56
2018-02-16T13:01:08.165Z,11.63
2018-02-16T13:03:36.673Z,11.81
2018-02-16T13:06:05.189Z,11.66
2018-02-16T13:08:33.713Z,11.58
2018-02-16T13:11:02.186Z,11.39
2018-02-16T13:13:30.699Z,11.64
2018-02-16T13:15:59.278Z,11.87
2018-02-16T13:18:27.811Z,12.12
2018-02-16T13:20:56.288Z,12.04
2018-02-16T13:23:25.654Z,11.86
2018-02-16T13:25:54.235Z,11.79
2018-02-16T13:28:22.729Z,11.77
2018-02-16T13:30:51.304Z,11.94
2018-02-16T13:33:19.813Z,11.82
2018-02-16T13:35:48.283Z,12.06
2018-02-16T13:38:16.817Z,11.83
2018-02-16T13:40:45.384Z,11.76
2018-02-16T13:43:13.859Z,12.10
2018-02-16T13:45:42.369Z,12.03
2018-02-16T13:48:10.943Z,12.07
2018-02-16T13:50:39.469Z,12.11
2018-02-16T13:53:07.985Z,12.08
2018-02-16T13:55:36.574Z,12.16
2018-02-16T13:58:05.091Z,12.19
2018-02-16T14:00:33.604Z,12.36
2018-02-16T14:03:02.154Z,12.15
2018-02-16T14:05:30.674Z,12.36
2018-02-16T14:07:59.226Z,12.39
2018-02-16T14:10:27.702Z,12.38
2018-02-16T14:12:56.231Z,12.18
2018-02-16T14:15:24.734Z,12.31
2018-02-16T14:17:53.214Z,12.31
2018-02-16T14:20:21.730Z,11.75
2018-02-16T14:22:50.215Z,12.36
2018-02-16T14:25:18.726Z,12.27
2018-02-16T14:27:47.209Z,12.10
2018-02-16T14:30:15.717Z,12.16
2018-02-16T14:32:44.216Z,12.14
2018-02-16T14:35:12.737Z,12.23
2018-02-16T14:37:41.262Z,12.27
2018-02-16T14:40:09.735Z,12.23
2018-02-16T14:42:38.206Z,12.17
2018-02-16T14:45:06.751Z,12.20
2018-02-16T14:47:35.231Z,11.96
2018-02-16T14:50:03.787Z,12.18
2018-02-16T14:52:32.262Z,11.94
2018-02-16T14:55:00.770Z,11.99
2018-02-16T14:57:29.310Z,11.97
2018-02-16T14:59:57.832Z,11.97
2018-02-16T15:02:26.317Z,11.70
2018-02-16T15:04:54.838Z,11.74
2018-02-16T15:07:23.361Z,11.78
2018-02-16T15:09:51.844Z,11.78
2018-02-16T15:12:20.318Z,11.60
2018-02-16T15:14:48.853Z,11.63
2018-02-16T15:17:17.371Z,11.69
2018-02-16T15:19:45.930Z,11.63
2018-02-16T15:22:14.465Z,11.64
2018-02-16T15:24:42.956Z,11.50
2018-02-16T15:27:11.785Z,11.59
2018-02-16T15:29:40.708Z,11.40
2018-02-16T15:32:09.780Z,11.45
2018-02-16T15:34:39.916Z,11.40
2018-02-16T15:37:08.955Z,11.37
2018-02-16T15:39:40.218Z,11.26
2018-02-16T15:42:09.222Z,11.26
2018-02-16T15:44:39.369Z,11.22
2018-02-16T15:47:08.617Z,11.15
2018-02-16T15:49:38.271Z,11.06
2018-02-16T15:52:06.997Z,10.99
2018-02-16T15:54:35.777Z,10.94
2018-02-16T15:57:04.601Z,10.88
2018-02-16T15:59:33.332Z,10.80
2018-02-16T16:02:01.819Z,10.71
2018-02-16T16:04:30.381Z,10.60
2018-02-16T16:06:58.855Z,10.54
2018-02-16T16:09:27.380Z,10.48
2018-02-16T16:11:55.848Z,10.41
2018-02-16T16:14:24.412Z,10.33
2018-02-16T16:16:52.886Z,10.25
2018-02-16T16:19:21.404Z,10.19
2018-02-16T16:21:49.878Z,10.12
2018-02-16T16:24:18.377Z,10.05
2018-02-16T16:26:46.874Z,9.99
2018-02-16T16:29:15.330Z,9.92
2018-02-16T16:31:44.570Z,9.71
2018-02-16T16:34:13.037Z,9.61
2018-02-16T16:36:41.542Z,9.67
2018-02-16T16:39:10.020Z,9.61
2018-02-16T16:41:38.546Z,9.39
2018-02-16T16:44:07.017Z,9.39
2018-02-16T16:46:35.522Z,9.32
2018-02-16T16:49:04.062Z,9.30
2018-02-16T16:51:32.565Z,9.23
2018-02-16T16:54:01.065Z,9.10
2018-02-16T16:56:29.534Z,9.01
2018-02-16T16:58:58.029Z,8.92
2018-02-16T17:01:26.499Z,8.93
2018-02-16T17:03:55.018Z,8.88
2018-02-16T17:06:23.482Z,8.81
2018-02-16T17:08:52.010Z,8.70
2018-02-16T17:11:20.536Z,8.60
2018-02-16T17:13:48.998Z,8.57
2018-02-16T17:16:17.469Z,8.61
2018-02-16T17:18:45.962Z,8.49
2018-02-16T17:21:14.418Z,8.47
2018-02-16T17:23:42.910Z,8.44
2018-02-16T17:26:11.380Z,8.36
2018-02-16T17:28:39.882Z,8.37
2018-02-16T17:31:08.388Z,8.30
2018-02-16T17:33:36.866Z,8.22
2018-02-16T17:36:05.386Z,8.12
2018-02-16T17:38:33.855Z,8.02
2018-02-16T17:41:02.334Z,7.85
2018-02-16T17:43:30.774Z,7.85
2018-02-16T17:45:59.272Z,7.77
2018-02-16T17:48:27.734Z,7.71
2018-02-16T17:50:56.197Z,7.55
2018-02-16T17:53:24.709Z,7.59
2018-02-16T17:55:53.170Z,7.55
2018-02-16T17:58:21.698Z,7.47
2018-02-16T18:00:50.166Z,7.44
2018-02-16T18:03:18.633Z,7.39
2018-02-16T18:05:47.135Z,7.19
2018-02-16T18:08:15.597Z,7.07
2018-02-16T18:10:44.097Z,7.10
2018-02-16T18:13:12.562Z,7.11
2018-02-16T18:15:41.066Z,7.14
2018-02-16T18:18:09.518Z,7.14
2018-02-16T18:20:38.074Z,7.14
2018-02-16T18:23:06.600Z,7.12
2018-02-16T18:25:35.075Z,6.91
2018-02-16T18:28:03.538Z,6.86
2018-02-16T18:30:32.042Z,6.90
2018-02-16T18:33:00.537Z,6.96
2018-02-16T18:35:29.001Z,6.98
2018-02-16T18:37:58.321Z,6.98
2018-02-16T18:40:26.802Z,6.94
2018-02-16T18:42:55.316Z,6.91
2018-02-16T18:45:23.837Z,6.87
2018-02-16T18:47:52.305Z,6.85
2018-02-16T18:50:20.805Z,6.83
2018-02-16T18:52:49.310Z,6.82
2018-02-16T18:55:17.790Z,6.80
2018-02-16T18:57:46.257Z,6.76
2018-02-16T19:00:14.766Z,6.75
2018-02-16T19:02:43.229Z,6.71
2018-02-16T19:05:11.718Z,6.65
2018-02-16T19:07:40.237Z,6.64
2018-02-16T19:10:08.702Z,6.60
2018-02-16T19:12:37.234Z,6.56
2018-02-16T19:15:05.706Z,6.53
2018-02-16T19:17:34.165Z,6.46
2018-02-16T19:20:02.666Z,6.34
2018-02-16T19:22:31.137Z,6.38
2018-02-16T19:24:59.655Z,6.35
2018-02-16T19:27:28.141Z,6.32
2018-02-16T19:29:56.657Z,6.30
2018-02-16T19:32:25.117Z,6.25
2018-02-16T19:34:53.662Z,6.22
2018-02-16T19:37:22.136Z,6.18
2018-02-16T19:39:50.637Z,6.16
2018-02-16T19:42:19.133Z,6.14
2018-02-16T19:44:47.650Z,6.12
2018-02-16T19:47:16.117Z,6.09
2018-02-16T19:49:44.573Z,6.06
2018-02-16T19:52:13.066Z,6.02
2018-02-16T19:54:41.515Z,5.99
2018-02-16T19:57:09.979Z,5.95
2018-02-16T19:59:38.477Z,5.95
2018-02-16T20:02:06.941Z,5.93
2018-02-16T20:04:35.450Z,5.80
2018-02-16T20:07:03.910Z,5.84
2018-02-16T20:09:32.421Z,5.79
2018-02-16T20:12:00.885Z,5.80
2018-02-16T20:14:29.345Z,5.52
2018-02-16T20:16:57.856Z,5.48
2018-02-16T20:19:26.317Z,5.37
2018-02-16T20:21:54.790Z,5.50
2018-02-16T20:24:23.254Z,5.54
2018-02-16T20:26:51.749Z,5.14
2018-02-16T20:29:20.257Z,5.33
2018-02-16T20:31:48.739Z,5.47
2018-02-16T20:34:17.244Z,5.53
2018-02-16T20:36:45.723Z,5.53
2018-02-16T20:39:14.229Z,5.29
2018-02-16T20:41:42.714Z,5.04
2018-02-16T20:44:11.229Z,5.13
2018-02-16T20:46:39.778Z,5.29
2018-02-16T20:49:08.231Z,5.48
2018-02-16T20:51:36.733Z,5.55
2018-02-16T20:54:05.258Z,5.62
2018-02-16T20:56:33.769Z,5.65
2018-02-16T20:59:02.252Z,5.54
2018-02-16T21:01:30.753Z,5.67
2018-02-16T21:03:59.262Z,5.66
2018-02-16T21:06:27.745Z,5.62
2018-02-16T21:08:56.225Z,5.63
2018-02-16T21:11:24.730Z,5.60
2018-02-16T21:13:53.225Z,5.53
2018-02-16T21:16:21.728Z,5.56
2018-02-16T21:18:50.228Z,5.54
2018-02-16T21:21:18.737Z,5.50
2018-02-16T21:23:47.206Z,5.37
2018-02-16T21:26:15.748Z,5.35
2018-02-16T21:28:44.213Z,5.43
2018-02-16T21:31:12.714Z,5.39
2018-02-16T21:33:41.214Z,5.37
2018-02-16T21:36:09.737Z,5.32
2018-02-16T21:38:38.237Z,5.28
2018-02-16T21:41:06.715Z,5.14
2018-02-16T21:43:35.184Z,5.06
2018-02-16T21:46:03.693Z,4.99
2018-02-16T21:48:32.201Z,5.03
2018-02-16T21:51:00.683Z,4.67
2018-02-16T21:53:29.234Z,4.39
2018-02-16T21:55:57.712Z,4.66
2018-02-16T21:58:26.186Z,4.45
2018-02-16T22:00:54.695Z,4.22
2018-02-16T22:03:23.158Z,4.08
2018-02-16T22:05:51.669Z,4.09
2018-02-16T22:08:20.126Z,4.33
2018-02-16T22:10:48.625Z,4.53
2018-02-16T22:13:17.173Z,4.66
2018-02-16T22:15:45.649Z,4.55
2018-02-16T22:18:14.166Z,4.69
2018-02-16T22:20:42.662Z,4.63
2018-02-16T22:23:11.154Z,4.67
2018-02-16T22:25:39.653Z,4.80
2018-02-16T22:28:08.110Z,4.80
2018-02-16T22:30:36.581Z,4.67
2018-02-16T22:33:05.070Z,4.74
2018-02-16T22:35:33.521Z,4.57
2018-02-16T22:38:01.982Z,4.70
2018-02-16T22:40:30.463Z,4.70
2018-02-16T22:42:58.922Z,4.70
2018-02-16T22:45:27.420Z,4.68
2018-02-16T22:47:55.903Z,4.61
2018-02-16T22:50:24.361Z,4.60
2018-02-16T22:52:52.907Z,4.56
2018-02-16T22:55:21.374Z,4.51
2018-02-16T22:57:49.846Z,4.42
2018-02-16T23:00:18.393Z,4.36
2018-02-16T23:02:46.898Z,4.35
2018-02-16T23:05:15.418Z,4.34
2018-02-16T23:07:43.937Z,4.18
2018-02-16T23:10:12.406Z,3.99
2018-02-16T23:12:40.886Z,4.05
2018-02-16T23:15:09.388Z,3.85
2018-02-16T23:17:37.850Z,3.70
2018-02-16T23:20:06.370Z,3.90
2018-02-16T23:22:34.832Z,3.82
2018-02-16T23:25:03.290Z,3.98
2018-02-16T23:27:31.787Z,4.04
2018-02-16T23:30:00.337Z,4.08
2018-02-16T23:32:28.809Z,4.11
2018-02-16T23:34:57.310Z,4.11
2018-02-16T23:37:25.891Z,4.08
2018-02-16T23:39:54.353Z,3.82
2018-02-16T23:42:22.846Z,3.93
2018-02-16T23:44:51.338Z,4.02
2018-02-16T23:47:19.844Z,4.13
2018-02-16T23:49:48.346Z,4.15
2018-02-16T23:52:16.810Z,4.06
2018-02-16T23:54:45.318Z,4.08
2018-02-16T23:57:13.806Z,3.91
2018-02-16T23:59:42.307Z,3.96
